Columbia Metropolitan Airport
KCAE : rendu visible

Aérodrome :











RETROUVEZ-NOUS SUR...

 
LOGIN :

S'inscrire | Disclaimer

   EN    FR    IT 

 









Légende :    VFR   VFR Marginal   IFR   IFR Intensif   IFR Très Intensif
Visi : 
Plafond : 
>= 8 km
>= 3000ft
5 à 8 km
1000 à 3000 ft
1500m à 5 km
500 à 1000 ft
800 à 1500m
200 à 500 ft
< 800m
< 200 ft
Symboles :   Orages  Brouillard  Fortes neiges  Fortes précipitations  Vent > 20 kt






- Altitude de l'aérodrome : 236 ft
- Code IATA : CAE


KCAE - Columbia Metropolitan

DERNIER METAR :
  • 081756Z 25003KT 10SM SCT046 SCT220 28/17 A2977 RMK AO2 SLP076 T02830167 10289 20172 58022

METARs EXPIRÉS :
  • 081656Z 31009KT 10SM SCT040 SCT220 28/16 A2979 RMK AO2 SLP085 T02780161
  • 081556Z 28010KT 10SM FEW028 FEW100 FEW200 27/16 A2982 RMK AO2 SLP094 T02670161

TAF KCAE
Valide du 08 à 18h jusqu'au 09 à 18h UTC


081738Z 0818/0918 28011G18KT P6SM SCT050
FM090000 25007KT P6SM BKN250
FM091100 25007KT P6SM VCSH BKN040
TEMPO 0911/0913 BKN025
FM091600 27014G25KT P6SM SCT040



MET'MAP, la Météo Aéronautique d'un coup d'oeil ! - Copyright ORBIFLY Décembre 2007 - Disclaimer

ORBIFLY MET'MAP TEAM :

Programmation & Développement : Alexandra Zaïnal
Sur une idée originale de : Baudouin d'Aumeries
Assistance à la programmation : Marc-Olivier Méhu
Soutien technique & logistique : Manuel Goepfert

Contact : metmap@orbifly.com




SOURCES & CREDITS :

   NOAA       Earth
Advisory